sensor_id;sensor_type;location;lat;lon;timestamp;temperature;humidity
1055;DHT22;516;51.482;7.120;2023-05-09T00:00:05;16.10;99.90
1055;DHT22;516;51.482;7.120;2023-05-09T00:05:57;15.90;99.90
1055;DHT22;516;51.482;7.120;2023-05-09T00:11:45;15.80;99.90
1055;DHT22;516;51.482;7.120;2023-05-09T00:17:33;15.70;99.90
1055;DHT22;516;51.482;7.120;2023-05-09T00:23:21;15.70;99.90
1055;DHT22;516;51.482;7.120;2023-05-09T00:29:10;15.60;99.90
1055;DHT22;516;51.482;7.120;2023-05-09T00:34:58;15.60;99.90
1055;DHT22;516;51.482;7.120;2023-05-09T00:40:45;15.60;99.90
1055;DHT22;516;51.482;7.120;2023-05-09T00:46:33;15.50;99.90
1055;DHT22;516;51.482;7.120;2023-05-09T00:52:24;15.30;99.90
1055;DHT22;516;51.482;7.120;2023-05-09T00:58:12;15.20;99.90
1055;DHT22;516;51.482;7.120;2023-05-09T01:00:59;15.00;99.90
1055;DHT22;516;51.482;7.120;2023-05-09T01:03:26;15.00;99.90
1055;DHT22;516;51.482;7.120;2023-05-09T01:15:35;14.60;99.90
1055;DHT22;516;51.482;7.120;2023-05-09T01:21:43;14.80;99.90
1055;DHT22;516;51.482;7.120;2023-05-09T01:34:05;14.60;99.90
1055;DHT22;516;51.482;7.120;2023-05-09T01:39:57;14.60;99.90
1055;DHT22;516;51.482;7.120;2023-05-09T01:45:47;14.70;99.90
1055;DHT22;516;51.482;7.120;2023-05-09T01:51:37;14.80;99.90
1055;DHT22;516;51.482;7.120;2023-05-09T01:57:26;14.90;99.90
1055;DHT22;516;51.482;7.120;2023-05-09T02:06:37;14.90;99.90
1055;DHT22;516;51.482;7.120;2023-05-09T02:12:26;14.90;99.90
1055;DHT22;516;51.482;7.120;2023-05-09T02:18:14;14.70;99.90
1055;DHT22;516;51.482;7.120;2023-05-09T02:24:03;14.50;99.90
1055;DHT22;516;51.482;7.120;2023-05-09T02:29:54;14.50;99.90
1055;DHT22;516;51.482;7.120;2023-05-09T02:35:44;14.50;99.90
1055;DHT22;516;51.482;7.120;2023-05-09T02:41:33;14.40;99.90
1055;DHT22;516;51.482;7.120;2023-05-09T02:47:21;14.40;99.90
1055;DHT22;516;51.482;7.120;2023-05-09T02:53:09;14.50;99.90
1055;DHT22;516;51.482;7.120;2023-05-09T02:58:57;14.60;99.90
1055;DHT22;516;51.482;7.120;2023-05-09T03:02:02;14.60;99.90
1055;DHT22;516;51.482;7.120;2023-05-09T03:04:27;14.70;99.90
1055;DHT22;516;51.482;7.120;2023-05-09T03:10:15;14.80;99.90
1055;DHT22;516;51.482;7.120;2023-05-09T03:16:03;14.90;99.90
1055;DHT22;516;51.482;7.120;2023-05-09T03:21:51;15.00;99.90
1055;DHT22;516;51.482;7.120;2023-05-09T03:27:39;15.10;99.90
1055;DHT22;516;51.482;7.120;2023-05-09T03:33:27;15.10;99.90
1055;DHT22;516;51.482;7.120;2023-05-09T03:39:15;15.20;99.90
1055;DHT22;516;51.482;7.120;2023-05-09T03:45:03;15.20;99.90
1055;DHT22;516;51.482;7.120;2023-05-09T03:50:51;15.20;99.90
1055;DHT22;516;51.482;7.120;2023-05-09T03:56:39;15.20;99.90
1055;DHT22;516;51.482;7.120;2023-05-09T04:12:06;15.30;99.90
1055;DHT22;516;51.482;7.120;2023-05-09T04:17:54;15.40;99.90
1055;DHT22;516;51.482;7.120;2023-05-09T04:23:42;15.30;99.90
1055;DHT22;516;51.482;7.120;2023-05-09T04:29:29;15.30;99.90
1055;DHT22;516;51.482;7.120;2023-05-09T04:35:18;15.30;99.90
1055;DHT22;516;51.482;7.120;2023-05-09T04:41:06;15.30;99.90
1055;DHT22;516;51.482;7.120;2023-05-09T04:46:53;15.30;99.90
1055;DHT22;516;51.482;7.120;2023-05-09T04:52:41;15.40;99.90
1055;DHT22;516;51.482;7.120;2023-05-09T04:58:29;15.50;99.90
1055;DHT22;516;51.482;7.120;2023-05-09T05:04:18;15.40;99.90
1055;DHT22;516;51.482;7.120;2023-05-09T05:10:05;15.40;99.90
1055;DHT22;516;51.482;7.120;2023-05-09T05:15:53;15.70;99.90
1055;DHT22;516;51.482;7.120;2023-05-09T05:21:41;15.60;99.90
1055;DHT22;516;51.482;7.120;2023-05-09T05:27:30;15.50;99.90
1055;DHT22;516;51.482;7.120;2023-05-09T05:33:17;15.90;99.90
1055;DHT22;516;51.482;7.120;2023-05-09T05:39:05;15.90;99.90
1055;DHT22;516;51.482;7.120;2023-05-09T05:44:53;16.10;99.90
1055;DHT22;516;51.482;7.120;2023-05-09T05:50:41;16.20;99.90
1055;DHT22;516;51.482;7.120;2023-05-09T05:56:28;16.60;99.90
1055;DHT22;516;51.482;7.120;2023-05-09T06:12:39;16.90;99.90
1055;DHT22;516;51.482;7.120;2023-05-09T06:18:26;16.60;99.90
1055;DHT22;516;51.482;7.120;2023-05-09T06:24:14;16.60;99.90
1055;DHT22;516;51.482;7.120;2023-05-09T06:30:01;17.00;99.90
1055;DHT22;516;51.482;7.120;2023-05-09T06:35:49;17.00;99.90
1055;DHT22;516;51.482;7.120;2023-05-09T06:41:36;17.20;99.90
1055;DHT22;516;51.482;7.120;2023-05-09T06:47:24;18.30;99.90
1055;DHT22;516;51.482;7.120;2023-05-09T06:53:12;18.60;99.90
1055;DHT22;516;51.482;7.120;2023-05-09T06:59:00;19.10;99.90
1055;DHT22;516;51.482;7.120;2023-05-09T07:02:03;19.20;99.90
1055;DHT22;516;51.482;7.120;2023-05-09T07:08:03;19.00;99.90
1055;DHT22;516;51.482;7.120;2023-05-09T07:13:52;18.40;99.90
1055;DHT22;516;51.482;7.120;2023-05-09T07:19:39;18.60;99.90
1055;DHT22;516;51.482;7.120;2023-05-09T07:25:28;18.30;99.90
1055;DHT22;516;51.482;7.120;2023-05-09T07:31:16;18.60;99.90
1055;DHT22;516;51.482;7.120;2023-05-09T07:37:04;18.60;99.90
1055;DHT22;516;51.482;7.120;2023-05-09T07:42:52;19.10;99.90
1055;DHT22;516;51.482;7.120;2023-05-09T07:48:42;20.00;99.90
1055;DHT22;516;51.482;7.120;2023-05-09T07:54:30;20.30;99.90
1055;DHT22;516;51.482;7.120;2023-05-09T08:00:18;20.30;99.90
1055;DHT22;516;51.482;7.120;2023-05-09T08:05:59;20.20;99.90
1055;DHT22;516;51.482;7.120;2023-05-09T08:11:48;20.60;99.90
1055;DHT22;516;51.482;7.120;2023-05-09T08:17:36;20.40;99.90
1055;DHT22;516;51.482;7.120;2023-05-09T08:23:24;20.60;99.90
1055;DHT22;516;51.482;7.120;2023-05-09T08:29:13;20.50;99.90
1055;DHT22;516;51.482;7.120;2023-05-09T08:35:01;21.30;99.90
1055;DHT22;516;51.482;7.120;2023-05-09T08:40:49;21.00;99.90
1055;DHT22;516;51.482;7.120;2023-05-09T08:46:38;20.30;99.90
1055;DHT22;516;51.482;7.120;2023-05-09T08:52:32;20.90;99.90
1055;DHT22;516;51.482;7.120;2023-05-09T08:58:20;21.20;99.90
1055;DHT22;516;51.482;7.120;2023-05-09T09:08:03;21.10;99.90
1055;DHT22;516;51.482;7.120;2023-05-09T09:13:52;20.20;99.90
1055;DHT22;516;51.482;7.120;2023-05-09T09:19:42;21.50;99.90
1055;DHT22;516;51.482;7.120;2023-05-09T09:25:30;22.30;99.70
1055;DHT22;516;51.482;7.120;2023-05-09T09:31:23;22.60;92.40
1055;DHT22;516;51.482;7.120;2023-05-09T09:43:45;22.20;83.80
1055;DHT22;516;51.482;7.120;2023-05-09T09:49:33;21.90;83.30
1055;DHT22;516;51.482;7.120;2023-05-09T09:55:23;22.80;69.30
1055;DHT22;516;51.482;7.120;2023-05-09T10:01:12;23.00;64.20
1055;DHT22;516;51.482;7.120;2023-05-09T10:07:09;23.70;58.00
1055;DHT22;516;51.482;7.120;2023-05-09T10:12:59;23.30;54.20
1055;DHT22;516;51.482;7.120;2023-05-09T10:18:48;23.00;57.50
1055;DHT22;516;51.482;7.120;2023-05-09T10:31:18;23.00;58.00
1055;DHT22;516;51.482;7.120;2023-05-09T10:37:27;22.80;55.50
1055;DHT22;516;51.482;7.120;2023-05-09T10:43:15;23.40;52.10
1055;DHT22;516;51.482;7.120;2023-05-09T10:49:05;22.90;51.40
1055;DHT22;516;51.482;7.120;2023-05-09T10:54:58;21.90;54.60
1055;DHT22;516;51.482;7.120;2023-05-09T11:01:05;21.70;59.40
1055;DHT22;516;51.482;7.120;2023-05-09T11:10:18;23.00;52.70
1055;DHT22;516;51.482;7.120;2023-05-09T11:16:10;23.20;41.80
1055;DHT22;516;51.482;7.120;2023-05-09T11:22:00;22.60;47.40
1055;DHT22;516;51.482;7.120;2023-05-09T11:27:49;22.60;42.90
1055;DHT22;516;51.482;7.120;2023-05-09T11:33:38;22.60;47.30
1055;DHT22;516;51.482;7.120;2023-05-09T11:39:26;22.80;47.10
1055;DHT22;516;51.482;7.120;2023-05-09T11:45:15;22.90;38.40
1055;DHT22;516;51.482;7.120;2023-05-09T11:51:03;23.20;37.50
1055;DHT22;516;51.482;7.120;2023-05-09T11:56:51;23.80;29.80
1055;DHT22;516;51.482;7.120;2023-05-09T12:02:39;22.90;31.20
1055;DHT22;516;51.482;7.120;2023-05-09T12:08:15;23.50;29.80
1055;DHT22;516;51.482;7.120;2023-05-09T12:14:03;23.50;32.50
1055;DHT22;516;51.482;7.120;2023-05-09T12:19:51;23.10;30.80
1055;DHT22;516;51.482;7.120;2023-05-09T12:25:56;22.80;34.40
1055;DHT22;516;51.482;7.120;2023-05-09T12:32:05;23.30;34.50
1055;DHT22;516;51.482;7.120;2023-05-09T12:37:57;23.10;32.80
1055;DHT22;516;51.482;7.120;2023-05-09T12:43:47;22.90;37.90
1055;DHT22;516;51.482;7.120;2023-05-09T12:49:35;23.30;38.40
1055;DHT22;516;51.482;7.120;2023-05-09T12:55:23;22.90;36.00
1055;DHT22;516;51.482;7.120;2023-05-09T13:01:11;23.20;38.00
1055;DHT22;516;51.482;7.120;2023-05-09T13:10:26;23.10;36.30
1055;DHT22;516;51.482;7.120;2023-05-09T13:16:15;23.30;29.00
1055;DHT22;516;51.482;7.120;2023-05-09T13:22:03;22.80;30.10
1055;DHT22;516;51.482;7.120;2023-05-09T13:27:51;22.80;31.30
1055;DHT22;516;51.482;7.120;2023-05-09T13:33:38;22.70;30.90
1055;DHT22;516;51.482;7.120;2023-05-09T13:39:26;22.30;34.50
1055;DHT22;516;51.482;7.120;2023-05-09T13:45:15;23.30;34.50
1055;DHT22;516;51.482;7.120;2023-05-09T13:51:03;22.90;34.50
1055;DHT22;516;51.482;7.120;2023-05-09T13:56:53;22.00;36.50
1055;DHT22;516;51.482;7.120;2023-05-09T14:02:41;22.00;40.50
1055;DHT22;516;51.482;7.120;2023-05-09T14:08:12;22.20;41.90
1055;DHT22;516;51.482;7.120;2023-05-09T14:14:00;21.50;60.20
1055;DHT22;516;51.482;7.120;2023-05-09T14:19:48;20.40;99.90
1055;DHT22;516;51.482;7.120;2023-05-09T14:22:16;20.00;99.90
1055;DHT22;516;51.482;7.120;2023-05-09T14:24:41;19.50;99.90
1055;DHT22;516;51.482;7.120;2023-05-09T14:30:29;19.40;99.90
1055;DHT22;516;51.482;7.120;2023-05-09T14:36:17;18.80;99.90
1055;DHT22;516;51.482;7.120;2023-05-09T14:42:07;18.60;99.90
1055;DHT22;516;51.482;7.120;2023-05-09T14:47:58;18.80;99.90
1055;DHT22;516;51.482;7.120;2023-05-09T14:53:46;18.40;99.90
1055;DHT22;516;51.482;7.120;2023-05-09T14:59:34;18.50;99.90
1055;DHT22;516;51.482;7.120;2023-05-09T15:05:22;18.30;99.90
1055;DHT22;516;51.482;7.120;2023-05-09T15:11:10;18.00;99.90
1055;DHT22;516;51.482;7.120;2023-05-09T15:20:19;17.80;99.90
1055;DHT22;516;51.482;7.120;2023-05-09T15:26:07;18.00;99.90
1055;DHT22;516;51.482;7.120;2023-05-09T15:31:55;17.90;99.90
1055;DHT22;516;51.482;7.120;2023-05-09T15:37:43;17.60;99.90
1055;DHT22;516;51.482;7.120;2023-05-09T15:43:31;17.20;99.90
1055;DHT22;516;51.482;7.120;2023-05-09T15:49:19;16.60;99.90
1055;DHT22;516;51.482;7.120;2023-05-09T15:55:09;16.30;99.90
1055;DHT22;516;51.482;7.120;2023-05-09T16:00:57;16.40;99.90
1055;DHT22;516;51.482;7.120;2023-05-09T16:06:44;16.20;99.90
1055;DHT22;516;51.482;7.120;2023-05-09T16:15:53;16.10;99.90
1055;DHT22;516;51.482;7.120;2023-05-09T16:21:43;16.00;99.90
1055;DHT22;516;51.482;7.120;2023-05-09T16:27:31;16.20;99.90
1055;DHT22;516;51.482;7.120;2023-05-09T16:33:19;16.00;99.90
1055;DHT22;516;51.482;7.120;2023-05-09T16:39:07;16.00;99.90
1055;DHT22;516;51.482;7.120;2023-05-09T16:44:56;16.00;99.90
1055;DHT22;516;51.482;7.120;2023-05-09T16:50:44;16.00;99.90
1055;DHT22;516;51.482;7.120;2023-05-09T16:56:33;15.90;99.90
1055;DHT22;516;51.482;7.120;2023-05-09T17:02:21;15.90;99.90
1055;DHT22;516;51.482;7.120;2023-05-09T17:08:09;16.00;99.90
1055;DHT22;516;51.482;7.120;2023-05-09T17:13:46;16.00;99.90
1055;DHT22;516;51.482;7.120;2023-05-09T17:19:35;15.90;99.90
1055;DHT22;516;51.482;7.120;2023-05-09T17:25:24;15.90;99.90
1055;DHT22;516;51.482;7.120;2023-05-09T17:31:11;15.90;99.90
1055;DHT22;516;51.482;7.120;2023-05-09T17:36:59;15.80;99.90
1055;DHT22;516;51.482;7.120;2023-05-09T17:42:49;15.80;99.90
1055;DHT22;516;51.482;7.120;2023-05-09T17:48:37;15.70;99.90
1055;DHT22;516;51.482;7.120;2023-05-09T17:54:25;15.60;99.90
1055;DHT22;516;51.482;7.120;2023-05-09T18:00:14;15.50;99.90
1055;DHT22;516;51.482;7.120;2023-05-09T18:06:02;15.40;99.90
1055;DHT22;516;51.482;7.120;2023-05-09T18:15:49;15.30;99.90
1055;DHT22;516;51.482;7.120;2023-05-09T18:21:37;15.20;99.90
1055;DHT22;516;51.482;7.120;2023-05-09T18:27:26;15.20;99.90
1055;DHT22;516;51.482;7.120;2023-05-09T18:33:15;15.10;99.90
1055;DHT22;516;51.482;7.120;2023-05-09T18:39:03;15.00;99.90
1055;DHT22;516;51.482;7.120;2023-05-09T18:44:51;14.80;99.90
1055;DHT22;516;51.482;7.120;2023-05-09T18:50:38;14.70;99.90
1055;DHT22;516;51.482;7.120;2023-05-09T18:56:26;14.70;99.90
1055;DHT22;516;51.482;7.120;2023-05-09T19:02:14;14.60;99.90
1055;DHT22;516;51.482;7.120;2023-05-09T19:08:01;14.60;99.90
1055;DHT22;516;51.482;7.120;2023-05-09T19:17:08;14.60;99.90
1055;DHT22;516;51.482;7.120;2023-05-09T19:22:58;14.50;99.90
1055;DHT22;516;51.482;7.120;2023-05-09T19:28:46;14.40;99.90
1055;DHT22;516;51.482;7.120;2023-05-09T19:34:33;14.40;99.90
1055;DHT22;516;51.482;7.120;2023-05-09T19:40:21;14.30;99.90
1055;DHT22;516;51.482;7.120;2023-05-09T19:46:09;14.30;99.90
1055;DHT22;516;51.482;7.120;2023-05-09T19:51:57;14.10;99.90
1055;DHT22;516;51.482;7.120;2023-05-09T19:57:45;14.20;99.90
1055;DHT22;516;51.482;7.120;2023-05-09T20:03:33;14.20;99.90
1055;DHT22;516;51.482;7.120;2023-05-09T20:09:25;14.10;99.90
1055;DHT22;516;51.482;7.120;2023-05-09T20:15:04;14.20;99.90
1055;DHT22;516;51.482;7.120;2023-05-09T20:20:53;14.10;99.90
1055;DHT22;516;51.482;7.120;2023-05-09T20:26:41;14.20;99.90
1055;DHT22;516;51.482;7.120;2023-05-09T20:32:29;14.20;99.90
1055;DHT22;516;51.482;7.120;2023-05-09T20:38:17;14.20;99.90
1055;DHT22;516;51.482;7.120;2023-05-09T20:44:06;14.20;99.90
1055;DHT22;516;51.482;7.120;2023-05-09T20:49:54;14.20;99.90
1055;DHT22;516;51.482;7.120;2023-05-09T20:55:42;14.30;99.90
1055;DHT22;516;51.482;7.120;2023-05-09T21:01:30;14.20;99.90
1055;DHT22;516;51.482;7.120;2023-05-09T21:07:21;14.20;99.90
1055;DHT22;516;51.482;7.120;2023-05-09T21:13:09;13.90;99.90
1055;DHT22;516;51.482;7.120;2023-05-09T21:18:57;13.70;99.90
1055;DHT22;516;51.482;7.120;2023-05-09T21:24:48;13.70;99.90
1055;DHT22;516;51.482;7.120;2023-05-09T21:30:37;13.70;99.90
1055;DHT22;516;51.482;7.120;2023-05-09T21:36:25;13.60;99.90
1055;DHT22;516;51.482;7.120;2023-05-09T21:42:12;13.70;99.90
1055;DHT22;516;51.482;7.120;2023-05-09T21:48:00;13.50;99.90
1055;DHT22;516;51.482;7.120;2023-05-09T21:53:48;13.60;99.90
1055;DHT22;516;51.482;7.120;2023-05-09T21:59:36;13.60;99.90
1055;DHT22;516;51.482;7.120;2023-05-09T22:02:39;13.50;99.90
1055;DHT22;516;51.482;7.120;2023-05-09T22:05:07;13.50;99.90
1055;DHT22;516;51.482;7.120;2023-05-09T22:10:55;13.50;99.90
1055;DHT22;516;51.482;7.120;2023-05-09T22:16:43;13.50;99.90
1055;DHT22;516;51.482;7.120;2023-05-09T22:22:31;13.50;99.90
1055;DHT22;516;51.482;7.120;2023-05-09T22:28:19;13.50;99.90
1055;DHT22;516;51.482;7.120;2023-05-09T22:34:07;13.50;99.90
1055;DHT22;516;51.482;7.120;2023-05-09T22:39:55;13.50;99.90
1055;DHT22;516;51.482;7.120;2023-05-09T22:45:43;13.50;99.90
1055;DHT22;516;51.482;7.120;2023-05-09T22:51:31;13.60;99.90
1055;DHT22;516;51.482;7.120;2023-05-09T22:57:19;13.50;99.90
1055;DHT22;516;51.482;7.120;2023-05-09T23:12:57;13.40;99.90
1055;DHT22;516;51.482;7.120;2023-05-09T23:18:45;13.40;99.90
1055;DHT22;516;51.482;7.120;2023-05-09T23:24:33;13.40;99.90
1055;DHT22;516;51.482;7.120;2023-05-09T23:30:20;13.50;99.90
1055;DHT22;516;51.482;7.120;2023-05-09T23:36:08;13.40;99.90
1055;DHT22;516;51.482;7.120;2023-05-09T23:41:56;13.40;99.90
1055;DHT22;516;51.482;7.120;2023-05-09T23:47:44;13.40;99.90
1055;DHT22;516;51.482;7.120;2023-05-09T23:53:32;13.30;99.90
1055;DHT22;516;51.482;7.120;2023-05-09T23:59:21;13.30;99.90
